createdAt,value
2022-11-08T00:01:32.824Z,98215.59
2022-11-08T00:04:02.567Z,98209.22
2022-11-08T00:06:49.902Z,98211.50
2022-11-08T00:09:37.603Z,98208.22
2022-11-08T00:12:24.896Z,98199.78
2022-11-08T00:14:53.430Z,98206.34
2022-11-08T00:17:23.971Z,98205.75
2022-11-08T00:19:53.295Z,98206.78
2022-11-08T00:22:24.563Z,98209.13
2022-11-08T00:24:55.144Z,98217.03
2022-11-08T00:27:25.534Z,98210.91
2022-11-08T00:29:55.122Z,98219.72
2022-11-08T00:32:26.273Z,98236.47
2022-11-08T00:34:55.853Z,98230.03
2022-11-08T00:37:25.111Z,98237.34
2022-11-08T00:39:55.752Z,98242.63
2022-11-08T00:42:24.771Z,98239.84
2022-11-08T00:44:53.651Z,98240.13
2022-11-08T00:47:22.525Z,98238.69
2022-11-08T00:49:51.239Z,98247.53
2022-11-08T00:52:19.753Z,98227.56
2022-11-08T00:54:48.889Z,98236.94
2022-11-08T00:57:22.259Z,98247.66
2022-11-08T00:59:54.536Z,98243.44
2022-11-08T01:02:23.251Z,98255.00
2022-11-08T01:04:51.887Z,98238.50
2022-11-08T01:07:20.692Z,98256.03
2022-11-08T01:09:50.773Z,98250.41
2022-11-08T01:12:24.556Z,98250.28
2022-11-08T01:14:54.398Z,98249.56
2022-11-08T01:17:23.901Z,98238.53
2022-11-08T01:19:52.292Z,98246.19
2022-11-08T01:22:21.054Z,98245.38
2022-11-08T01:24:49.576Z,98248.88
2022-11-08T01:27:18.483Z,98245.25
2022-11-08T01:29:48.790Z,98236.34
2022-11-08T01:32:17.268Z,98251.16
2022-11-08T01:34:45.745Z,98247.19
2022-11-08T01:37:14.498Z,98255.44
2022-11-08T01:39:43.209Z,98242.94
2022-11-08T01:42:11.968Z,98260.25
2022-11-08T01:45:01.261Z,98257.94
2022-11-08T01:47:30.244Z,98263.38
2022-11-08T01:50:02.798Z,98246.78
2022-11-08T01:52:35.944Z,98249.25
2022-11-08T01:55:14.112Z,98247.47
2022-11-08T01:57:49.018Z,98249.63
2022-11-08T02:00:21.654Z,98251.63
2022-11-08T02:03:02.699Z,98248.50
2022-11-08T02:05:32.777Z,98248.13
2022-11-08T02:08:06.592Z,98247.81
2022-11-08T02:10:38.419Z,98248.00
2022-11-08T02:13:14.487Z,98257.34
2022-11-08T02:15:45.684Z,98247.81
2022-11-08T02:18:16.467Z,98249.16
2022-11-08T02:20:52.652Z,98245.88
2022-11-08T02:23:27.669Z,98246.13
2022-11-08T02:25:57.711Z,98242.53
2022-11-08T02:28:26.319Z,98248.50
2022-11-08T02:30:55.989Z,98240.59
2022-11-08T02:33:25.247Z,98247.81
2022-11-08T02:35:56.490Z,98248.94
2022-11-08T02:38:27.536Z,98247.31
2022-11-08T02:40:58.819Z,98245.19
2022-11-08T02:43:27.661Z,98239.41
2022-11-08T02:45:56.291Z,98241.06
2022-11-08T02:48:25.091Z,98226.56
2022-11-08T02:50:54.193Z,98224.28
2022-11-08T02:53:22.890Z,98223.91
2022-11-08T02:55:52.094Z,98230.66
2022-11-08T02:58:22.606Z,98223.44
2022-11-08T03:00:51.286Z,98224.09
2022-11-08T03:03:19.791Z,98216.97
2022-11-08T03:05:49.000Z,98218.22
2022-11-08T03:08:17.858Z,98217.63
2022-11-08T03:10:46.792Z,98219.81
2022-11-08T03:13:15.546Z,98209.50
2022-11-08T03:15:45.600Z,98214.09
2022-11-08T03:18:13.868Z,98203.88
2022-11-08T03:20:42.234Z,98208.53
2022-11-08T03:23:10.796Z,98202.59
2022-11-08T03:25:39.844Z,98195.97
2022-11-08T03:28:10.627Z,98198.63
2022-11-08T03:30:39.397Z,98190.38
2022-11-08T03:33:10.400Z,98187.38
2022-11-08T03:35:38.954Z,98183.84
2022-11-08T03:38:07.478Z,98176.91
2022-11-08T03:40:35.831Z,98166.88
2022-11-08T03:43:04.479Z,98158.97
2022-11-08T03:45:33.690Z,98163.78
2022-11-08T03:48:03.080Z,98155.88
2022-11-08T03:50:33.306Z,98148.03
2022-11-08T03:53:01.830Z,98150.47
2022-11-08T03:55:30.619Z,98137.53
2022-11-08T03:57:59.643Z,98125.53
2022-11-08T04:00:31.191Z,98132.25
2022-11-08T04:03:05.061Z,98120.84
2022-11-08T04:05:35.217Z,98118.59
2022-11-08T04:08:06.485Z,98104.84
2022-11-08T04:10:35.089Z,98119.03
2022-11-08T04:13:24.449Z,98102.44
2022-11-08T04:15:57.486Z,98096.06
2022-11-08T04:18:45.666Z,98094.06
2022-11-08T04:21:22.523Z,98089.00
2022-11-08T04:23:52.920Z,98093.13
2022-11-08T04:26:23.170Z,98086.91
2022-11-08T04:28:52.416Z,98073.34
2022-11-08T04:31:21.835Z,98080.97
2022-11-08T04:33:50.295Z,98081.50
2022-11-08T04:36:21.647Z,98078.84
2022-11-08T04:38:51.428Z,98080.97
2022-11-08T04:41:21.948Z,98080.19
2022-11-08T04:43:52.493Z,98081.34
2022-11-08T04:46:22.922Z,98075.16
2022-11-08T04:48:52.865Z,98065.78
2022-11-08T04:51:27.008Z,98074.31
2022-11-08T04:53:56.824Z,98071.63
2022-11-08T04:56:26.769Z,98072.53
2022-11-08T04:58:57.216Z,98078.19
2022-11-08T05:01:27.495Z,98075.06
2022-11-08T05:03:56.827Z,98075.91
2022-11-08T05:06:30.557Z,98082.81
2022-11-08T05:09:00.707Z,98079.41
2022-11-08T05:11:31.297Z,98073.13
2022-11-08T05:14:00.544Z,98070.03
2022-11-08T05:16:32.210Z,98069.88
2022-11-08T05:19:01.157Z,98067.84
2022-11-08T05:21:49.587Z,98052.38
2022-11-08T05:24:19.724Z,98017.00
2022-11-08T05:26:49.836Z,98017.88
2022-11-08T05:29:18.529Z,98023.69
2022-11-08T05:31:47.068Z,98025.72
2022-11-08T05:34:15.649Z,98038.78
2022-11-08T05:36:46.358Z,98044.41
2022-11-08T05:39:15.008Z,98042.94
2022-11-08T05:41:45.297Z,98043.13
2022-11-08T05:44:13.641Z,98052.66
2022-11-08T05:46:42.266Z,98054.28
2022-11-08T05:49:10.925Z,98050.84
2022-11-08T05:51:40.144Z,98047.56
2022-11-08T05:54:10.184Z,98045.28
2022-11-08T05:56:38.646Z,98038.56
2022-11-08T05:59:07.254Z,98036.25
2022-11-08T06:01:38.984Z,98028.25
2022-11-08T06:04:08.840Z,98038.13
2022-11-08T06:06:37.760Z,98020.88
2022-11-08T06:09:06.555Z,98033.22
2022-11-08T06:11:36.606Z,98022.31
2022-11-08T06:14:07.026Z,98015.97
2022-11-08T06:16:37.891Z,98009.50
2022-11-08T06:19:06.611Z,98014.25
2022-11-08T06:21:35.722Z,98010.72
2022-11-08T06:24:05.822Z,97993.56
2022-11-08T06:26:36.266Z,97999.06
2022-11-08T06:29:04.670Z,97985.56
2022-11-08T06:31:33.452Z,97990.09
2022-11-08T06:34:02.831Z,97996.09
2022-11-08T06:36:32.430Z,98002.06
2022-11-08T06:39:00.867Z,98011.53
2022-11-08T06:41:32.767Z,98013.69
2022-11-08T06:44:05.949Z,98008.25
2022-11-08T06:46:37.990Z,98007.78
2022-11-08T06:49:06.701Z,98010.69
2022-11-08T06:51:35.152Z,98007.28
2022-11-08T06:54:08.736Z,97999.72
2022-11-08T06:56:38.382Z,98000.88
2022-11-08T06:59:08.491Z,97995.91
2022-11-08T07:01:41.963Z,97996.72
2022-11-08T07:04:13.161Z,97999.56
2022-11-08T07:06:41.851Z,97990.63
2022-11-08T07:09:10.450Z,97989.34
2022-11-08T07:11:39.216Z,97970.63
2022-11-08T07:14:11.412Z,97972.91
2022-11-08T07:16:39.985Z,97959.19
2022-11-08T07:19:08.353Z,97956.38
2022-11-08T07:21:37.093Z,97973.19
2022-11-08T07:24:07.217Z,97967.91
2022-11-08T07:26:36.556Z,97968.25
2022-11-08T07:29:05.024Z,97961.91
2022-11-08T07:31:35.153Z,97963.25
2022-11-08T07:34:03.975Z,97980.50
2022-11-08T07:36:32.415Z,97975.41
2022-11-08T07:39:06.263Z,97970.38
2022-11-08T07:41:35.297Z,97977.75
2022-11-08T07:57:00.998Z,97982.34
2022-11-08T07:59:35.459Z,97981.91
2022-11-08T08:02:04.130Z,97981.00
2022-11-08T08:04:34.457Z,97981.00
2022-11-08T08:07:03.732Z,97981.28
2022-11-08T08:09:34.657Z,97986.81
2022-11-08T08:12:05.905Z,97993.56
2022-11-08T08:14:34.505Z,97999.84
2022-11-08T08:17:03.103Z,98002.53
2022-11-08T08:19:31.972Z,97998.84
2022-11-08T08:22:12.340Z,97985.94
2022-11-08T08:24:44.058Z,98000.06
2022-11-08T08:27:19.458Z,98008.88
2022-11-08T08:29:50.594Z,98006.78
2022-11-08T08:32:19.557Z,98011.06
2022-11-08T08:34:54.412Z,98011.44
2022-11-08T10:24:55.621Z,98005.88
2022-11-08T10:31:16.638Z,97985.50
2022-11-08T10:34:41.207Z,97986.72
2022-11-08T10:52:47.381Z,97972.75
2022-11-08T11:24:24.015Z,98011.75
2022-11-08T11:27:29.790Z,98005.38
2022-11-08T11:33:52.733Z,98007.13
2022-11-08T11:44:50.112Z,97975.63
2022-11-08T11:51:13.095Z,97968.53
2022-11-08T11:53:50.921Z,97946.53
2022-11-08T12:00:12.948Z,97945.53
2022-11-08T15:16:42.952Z,97977.00
2022-11-08T15:27:28.526Z,98003.88
2022-11-08T15:30:43.992Z,97996.28
2022-11-08T15:41:02.547Z,98017.22
2022-11-08T15:48:10.504Z,98024.97
2022-11-08T15:54:20.339Z,98048.19
2022-11-08T15:56:55.441Z,98048.78
2022-11-08T15:59:30.139Z,98053.63
2022-11-08T16:02:00.668Z,98050.09
2022-11-08T16:04:30.276Z,98054.47
2022-11-08T16:06:59.232Z,98048.81
2022-11-08T16:09:27.656Z,98055.56
2022-11-08T16:11:58.089Z,98061.25
2022-11-08T16:14:26.854Z,98068.88
2022-11-08T16:16:55.176Z,98071.06
2022-11-08T16:19:25.624Z,98084.28
2022-11-08T16:21:54.953Z,98084.44
2022-11-08T16:24:23.387Z,98096.19
2022-11-08T16:26:53.850Z,98097.19
2022-11-08T16:29:25.900Z,98104.66
2022-11-08T16:31:55.054Z,98107.09
2022-11-08T16:34:23.662Z,98106.81
2022-11-08T16:36:54.996Z,98109.66
2022-11-08T16:39:27.095Z,98111.63
2022-11-08T16:41:55.836Z,98106.19
2022-11-08T16:44:25.799Z,98107.84
2022-11-08T16:46:55.372Z,98110.13
2022-11-08T16:49:27.427Z,98126.84
2022-11-08T16:51:56.254Z,98122.13
2022-11-08T16:54:28.702Z,98116.28
2022-11-08T16:57:20.608Z,98126.94
2022-11-08T16:59:47.569Z,98115.81
2022-11-08T17:02:22.834Z,98141.47
2022-11-08T17:04:51.513Z,98116.16
2022-11-08T17:07:20.674Z,98121.44
2022-11-08T17:09:49.464Z,98136.59
2022-11-08T17:12:18.218Z,98134.41
2022-11-08T17:14:48.864Z,98139.50
2022-11-08T17:17:17.496Z,98137.75
2022-11-08T17:19:46.414Z,98147.34
2022-11-08T17:22:15.564Z,98146.25
2022-11-08T17:24:44.021Z,98152.81
2022-11-08T17:27:12.418Z,98147.16
2022-11-08T17:29:40.998Z,98154.94
2022-11-08T17:32:10.974Z,98157.25
2022-11-08T17:34:40.252Z,98152.91
2022-11-08T17:37:08.904Z,98157.72
2022-11-08T17:39:37.709Z,98172.94
2022-11-08T17:42:07.108Z,98173.91
2022-11-08T17:44:35.785Z,98176.81
2022-11-08T17:47:07.027Z,98171.66
2022-11-08T17:49:42.950Z,98165.81
2022-11-08T17:52:12.981Z,98178.03
2022-11-08T17:54:42.486Z,98192.50
2022-11-08T17:57:11.533Z,98185.19
2022-11-08T17:59:40.620Z,98190.47
2022-11-08T18:02:09.519Z,98183.44
2022-11-08T18:04:40.708Z,98183.09
2022-11-08T18:07:09.527Z,98197.91
2022-11-08T18:09:39.099Z,98192.41
2022-11-08T18:12:07.717Z,98201.97
2022-11-08T18:14:36.801Z,98203.78
2022-11-08T18:17:05.721Z,98212.19
2022-11-08T18:19:34.554Z,98203.09
2022-11-08T18:22:04.819Z,98205.44
2022-11-08T18:24:33.549Z,98227.13
2022-11-08T18:27:02.130Z,98211.88
2022-11-08T18:29:30.814Z,98231.44
2022-11-08T18:32:01.978Z,98255.13
2022-11-08T18:34:31.007Z,98240.59
2022-11-08T18:36:59.416Z,98258.31
2022-11-08T18:39:29.501Z,98259.50
2022-11-08T18:41:58.039Z,98262.53
2022-11-08T18:44:26.965Z,98280.31
2022-11-08T18:46:55.456Z,98278.91
2022-11-08T18:49:23.890Z,98287.53
2022-11-08T18:51:53.845Z,98302.72
2022-11-08T18:54:22.634Z,98301.91
2022-11-08T18:56:52.390Z,98308.81
2022-11-08T18:59:22.115Z,98312.16
2022-11-08T19:01:50.553Z,98316.09
2022-11-08T19:04:19.565Z,98318.06
2022-11-08T19:06:54.156Z,98335.91
2022-11-08T19:09:23.678Z,98334.47
2022-11-08T19:11:54.011Z,98346.34
2022-11-08T19:14:24.386Z,98353.91
2022-11-08T19:16:56.417Z,98344.19
2022-11-08T19:19:25.035Z,98371.09
2022-11-08T19:21:53.796Z,98367.44
2022-11-08T19:24:22.411Z,98369.56
2022-11-08T19:26:51.181Z,98374.25
2022-11-08T19:29:21.376Z,98401.94
2022-11-08T19:31:50.221Z,98419.09
2022-11-08T19:34:18.608Z,98435.56
2022-11-08T19:36:50.150Z,98407.19
2022-11-08T19:39:23.776Z,98426.16
2022-11-08T19:41:52.965Z,98432.28
2022-11-08T19:44:23.026Z,98426.19
2022-11-08T19:46:51.909Z,98432.50
2022-11-08T19:49:25.460Z,98432.63
2022-11-08T19:51:54.105Z,98436.59
2022-11-08T19:54:22.892Z,98452.44
2022-11-08T19:57:04.717Z,98449.47
2022-11-08T19:59:35.944Z,98454.09
2022-11-08T20:02:11.188Z,98465.16
2022-11-08T20:04:40.388Z,98478.16
2022-11-08T20:07:09.924Z,98474.69
2022-11-08T20:09:39.457Z,98479.97
2022-11-08T20:12:08.702Z,98498.59
2022-11-08T20:14:38.884Z,98494.16
2022-11-08T20:17:07.797Z,98504.88
2022-11-08T20:19:36.453Z,98511.47
2022-11-08T20:22:05.034Z,98519.03
2022-11-08T20:24:33.756Z,98524.78
2022-11-08T20:27:03.989Z,98534.69
2022-11-08T20:29:32.519Z,98530.38
2022-11-08T20:32:03.771Z,98526.28
2022-11-08T20:34:38.663Z,98547.19
2022-11-08T20:37:07.796Z,98557.91
2022-11-08T20:39:39.128Z,98573.41
2022-11-08T20:42:07.883Z,98568.28
2022-11-08T20:44:37.531Z,98572.41
2022-11-08T20:47:08.751Z,98574.22
2022-11-08T20:49:37.839Z,98578.97
2022-11-08T20:52:06.455Z,98584.09
2022-11-08T20:54:37.778Z,98585.44
2022-11-08T20:57:08.456Z,98593.00
2022-11-08T20:59:37.027Z,98600.72
2022-11-08T21:02:07.355Z,98604.19
2022-11-08T21:04:35.817Z,98604.88
2022-11-08T21:08:01.427Z,98608.63
2022-11-08T21:10:07.746Z,98621.50
2022-11-08T21:12:42.990Z,98621.81
2022-11-08T21:15:12.944Z,98631.84
2022-11-08T21:17:43.124Z,98640.75
2022-11-08T21:20:12.929Z,98639.75
2022-11-08T21:22:42.556Z,98641.88
2022-11-08T21:25:14.001Z,98654.75
2022-11-08T21:27:43.142Z,98665.63
2022-11-08T21:30:13.810Z,98664.50
2022-11-08T21:32:43.708Z,98667.25
2022-11-08T21:35:12.154Z,98669.41
2022-11-08T21:37:41.138Z,98665.59
2022-11-08T21:40:10.835Z,98675.47
2022-11-08T21:42:41.714Z,98675.47
2022-11-08T21:45:15.458Z,98688.66
2022-11-08T21:47:50.615Z,98685.53
2022-11-08T21:50:19.683Z,98693.44
2022-11-08T21:52:48.536Z,98694.75
2022-11-08T21:55:17.785Z,98699.72
2022-11-08T21:57:46.451Z,98710.91
2022-11-08T22:00:16.894Z,98704.63
2022-11-08T22:02:47.439Z,98713.72
2022-11-08T22:05:20.483Z,98721.09
2022-11-08T22:07:49.308Z,98718.63
2022-11-08T22:10:18.077Z,98723.38
2022-11-08T22:12:46.686Z,98727.34
2022-11-08T22:15:15.184Z,98730.50
2022-11-08T22:18:07.678Z,98725.03
2022-11-08T22:20:36.750Z,98741.00
2022-11-08T22:23:08.947Z,98744.28
2022-11-08T22:25:37.847Z,98743.47
2022-11-08T22:28:07.453Z,98747.63
2022-11-08T22:30:35.972Z,98754.19
2022-11-08T22:33:05.553Z,98753.19
2022-11-08T22:35:36.667Z,98756.97
2022-11-08T22:38:05.358Z,98763.72
2022-11-08T22:40:34.033Z,98772.09
2022-11-08T22:43:02.892Z,98779.66
2022-11-08T22:45:31.347Z,98775.50
2022-11-08T22:47:59.833Z,98777.19
2022-11-08T22:50:28.190Z,98794.94
2022-11-08T22:52:58.397Z,98792.53
2022-11-08T22:55:29.095Z,98791.00
2022-11-08T22:57:59.090Z,98801.56
2022-11-08T23:00:30.274Z,98800.91
2022-11-08T23:03:00.147Z,98802.91
2022-11-08T23:05:28.749Z,98800.09
2022-11-08T23:08:00.331Z,98797.97
2022-11-08T23:10:32.275Z,98805.84
2022-11-08T23:13:18.459Z,98804.88
2022-11-08T23:16:12.980Z,98816.38
2022-11-08T23:19:02.095Z,98804.13
2022-11-08T23:21:47.591Z,98814.91
2022-11-08T23:24:21.797Z,98823.25
2022-11-08T23:27:09.144Z,98815.03
2022-11-08T23:29:55.194Z,98836.63
2022-11-08T23:32:25.380Z,98827.25
2022-11-08T23:34:54.149Z,98842.81
2022-11-08T23:37:22.551Z,98831.94
2022-11-08T23:40:11.554Z,98840.72
2022-11-08T23:43:13.186Z,98837.56
2022-11-08T23:45:42.836Z,98856.78
2022-11-08T23:48:11.332Z,98845.09
2022-11-08T23:50:39.804Z,98853.97
2022-11-08T23:53:08.351Z,98854.97
2022-11-08T23:55:38.884Z,98861.34
2022-11-08T23:58:07.172Z,98851.44
